createdAt,value
2022-07-28T00:04:43.862Z,5.15
2022-07-28T00:09:45.619Z,2.67
2022-07-28T00:14:47.411Z,2.65
2022-07-28T00:19:49.311Z,4.82
2022-07-28T00:24:51.016Z,3.38
2022-07-28T00:29:52.666Z,2.70
2022-07-28T00:34:54.317Z,2.63
2022-07-28T00:39:56.120Z,3.47
2022-07-28T00:44:57.775Z,3.22
2022-07-28T00:49:59.545Z,3.53
2022-07-28T00:55:04.485Z,3.72
2022-07-28T01:00:06.877Z,4.25
2022-07-28T01:05:09.489Z,3.17
2022-07-28T01:10:24.448Z,2.50
2022-07-28T01:15:33.511Z,2.40
2022-07-28T01:20:49.242Z,4.22
2022-07-28T01:26:28.534Z,3.58
2022-07-28T01:31:40.993Z,3.55
2022-07-28T01:36:51.364Z,2.80
2022-07-28T01:41:56.148Z,5.20
2022-07-28T01:47:00.566Z,3.38
2022-07-28T01:52:06.679Z,3.42
2022-07-28T01:57:14.476Z,3.00
2022-07-28T02:02:18.842Z,3.00
2022-07-28T02:07:21.218Z,4.70
2022-07-28T02:12:24.327Z,2.67
2022-07-28T02:17:30.918Z,3.78
2022-07-28T02:22:33.743Z,6.88
2022-07-28T02:27:47.324Z,4.38
2022-07-28T02:32:53.877Z,7.20
2022-07-28T02:38:07.557Z,4.10
2022-07-28T02:43:15.717Z,2.58
2022-07-28T02:48:21.449Z,4.00
2022-07-28T02:53:24.605Z,3.25
2022-07-28T02:58:28.051Z,5.20
2022-07-28T03:03:30.947Z,3.60
2022-07-28T03:08:32.739Z,3.15
2022-07-28T03:13:34.563Z,2.80
2022-07-28T03:18:36.255Z,3.42
2022-07-28T03:23:45.434Z,2.63
2022-07-28T03:28:48.885Z,2.45
2022-07-28T03:33:50.686Z,4.05
2022-07-28T03:39:00.716Z,2.40
2022-07-28T03:44:03.067Z,5.40
2022-07-28T03:49:08.477Z,17.67
2022-07-28T03:54:10.501Z,7.03
2022-07-28T03:59:12.360Z,2.30
2022-07-28T04:04:14.253Z,4.03
2022-07-28T04:09:16.344Z,2.17
2022-07-28T04:14:18.625Z,3.80
2022-07-28T04:19:20.582Z,3.55
2022-07-28T04:24:22.371Z,3.80
2022-07-28T04:29:27.447Z,3.40
2022-07-28T04:34:29.369Z,4.88
2022-07-28T04:39:31.557Z,3.72
2022-07-28T04:44:33.715Z,3.00
2022-07-28T04:49:35.565Z,4.82
2022-07-28T04:54:38.259Z,7.57
2022-07-28T04:59:40.113Z,6.30
2022-07-28T05:04:41.804Z,6.15
2022-07-28T05:09:43.826Z,8.20
2022-07-28T05:14:45.383Z,3.70
2022-07-28T05:19:47.040Z,3.78
2022-07-28T05:24:48.619Z,4.65
2022-07-28T05:29:51.750Z,3.88
2022-07-28T05:34:53.523Z,4.32
2022-07-28T05:39:55.248Z,6.20
2022-07-28T05:44:57.072Z,5.38
2022-07-28T05:50:02.229Z,5.20
2022-07-28T05:55:05.249Z,6.15
2022-07-28T06:00:19.674Z,10.98
2022-07-28T06:05:23.733Z,9.55
2022-07-28T06:10:48.513Z,7.65
2022-07-28T06:15:52.774Z,6.00
2022-07-28T06:20:54.436Z,6.72
2022-07-28T06:25:56.157Z,5.40
2022-07-28T06:30:57.890Z,7.85
2022-07-28T06:35:59.471Z,8.95
2022-07-28T06:41:01.779Z,6.50
2022-07-28T06:46:03.847Z,5.63
2022-07-28T06:51:05.953Z,8.65
2022-07-28T06:56:08.578Z,9.27
2022-07-28T07:01:16.472Z,8.95
2022-07-28T07:06:18.698Z,10.32
2022-07-28T07:11:24.913Z,8.82
2022-07-28T07:21:43.161Z,9.23
2022-07-28T07:26:44.804Z,18.95
2022-07-28T07:31:46.604Z,7.95
2022-07-28T07:36:54.425Z,14.50
2022-07-28T07:41:56.289Z,14.35
2022-07-28T07:46:58.706Z,10.20
2022-07-28T07:52:04.094Z,5.47
2022-07-28T07:57:06.034Z,8.48
2022-07-28T08:02:07.915Z,12.73
2022-07-28T08:07:10.102Z,12.60
2022-07-28T08:12:11.918Z,11.07
2022-07-28T08:17:13.601Z,4.85
2022-07-28T08:22:18.545Z,4.35
2022-07-28T08:27:20.658Z,3.60
2022-07-28T08:32:22.371Z,4.60
2022-07-28T08:37:27.119Z,11.85
2022-07-28T08:42:43.693Z,5.47
2022-07-28T08:48:07.190Z,9.32
2022-07-28T08:53:09.420Z,7.60
2022-07-28T08:58:13.244Z,5.13
2022-07-28T09:03:16.917Z,4.03
2022-07-28T09:08:19.669Z,4.47
2022-07-28T09:13:21.467Z,3.60
2022-07-28T09:18:23.159Z,3.42
2022-07-28T09:23:42.678Z,4.18
2022-07-28T09:29:02.494Z,3.95
2022-07-28T09:34:05.576Z,6.35
2022-07-28T09:39:08.291Z,3.47
2022-07-28T09:44:21.449Z,4.28
2022-07-28T09:49:44.743Z,8.82
2022-07-28T09:55:09.970Z,4.18
2022-07-28T10:00:24.354Z,4.15
2022-07-28T10:05:39.736Z,2.88
2022-07-28T10:10:41.597Z,7.60
2022-07-28T10:16:01.634Z,4.35
2022-07-28T10:21:09.882Z,3.67
2022-07-28T10:26:13.041Z,3.05
2022-07-28T10:31:22.501Z,3.10
2022-07-28T10:36:25.808Z,2.33
2022-07-28T10:41:32.915Z,3.17
2022-07-28T10:46:35.171Z,2.70
2022-07-28T10:51:59.863Z,2.40
2022-07-28T10:57:05.200Z,3.03
2022-07-28T11:02:08.601Z,2.15
2022-07-28T11:07:15.649Z,2.35
2022-07-28T11:12:48.218Z,2.20
2022-07-28T11:18:06.552Z,2.58
2022-07-28T11:23:39.465Z,4.13
2022-07-28T11:29:03.880Z,7.45
2022-07-28T11:34:07.050Z,2.78
2022-07-28T11:39:25.547Z,1.70
2022-07-28T11:44:31.003Z,2.00
2022-07-28T11:49:33.344Z,1.55
2022-07-28T11:54:36.677Z,2.20
2022-07-28T11:59:58.293Z,2.03
2022-07-28T12:05:08.540Z,1.90
2022-07-28T12:15:53.023Z,2.00
2022-07-28T12:20:55.497Z,1.90
2022-07-28T12:25:57.705Z,1.73
2022-07-28T12:31:15.694Z,1.85
2022-07-28T12:36:19.453Z,1.77
2022-07-28T12:41:22.472Z,1.80
2022-07-28T12:46:28.955Z,2.75
2022-07-28T12:51:43.029Z,1.80
2022-07-28T12:56:52.435Z,6.38
2022-07-28T13:01:56.118Z,2.90
2022-07-28T13:06:57.752Z,2.08
2022-07-28T13:12:00.509Z,1.50
2022-07-28T13:17:02.236Z,2.58
2022-07-28T13:22:08.813Z,2.00
2022-07-28T13:27:11.062Z,1.43
2022-07-28T13:32:12.826Z,2.28
2022-07-28T13:37:15.365Z,1.83
2022-07-28T13:42:18.581Z,1.50
2022-07-28T13:47:20.252Z,1.35
2022-07-28T13:52:32.732Z,1.35
2022-07-28T13:57:36.978Z,1.80
2022-07-28T14:02:38.932Z,1.90
2022-07-28T14:07:48.813Z,2.03
2022-07-28T14:12:51.025Z,1.63
2022-07-28T14:17:53.441Z,1.27
2022-07-28T14:22:55.171Z,2.17
2022-07-28T14:27:57.572Z,0.82
2022-07-28T14:32:59.262Z,1.17
2022-07-28T14:38:50.236Z,1.75
2022-07-28T14:43:22.827Z,1.40
2022-07-28T14:48:24.518Z,1.77
2022-07-28T14:53:27.665Z,1.50
2022-07-28T14:58:29.920Z,2.08
2022-07-28T15:03:36.374Z,2.85
2022-07-28T15:08:38.385Z,1.60
2022-07-28T15:13:39.996Z,1.48
2022-07-28T15:18:41.765Z,1.50
2022-07-28T15:23:44.112Z,1.85
2022-07-28T15:28:48.483Z,1.70
2022-07-28T15:33:54.045Z,1.50
2022-07-28T15:38:59.733Z,2.70
2022-07-28T15:44:01.705Z,1.40
2022-07-28T15:49:09.424Z,1.50
2022-07-28T15:54:11.270Z,1.67
2022-07-28T15:59:13.127Z,1.45
2022-07-28T16:04:15.057Z,1.02
2022-07-28T16:09:17.277Z,1.25
2022-07-28T16:14:19.341Z,2.75
2022-07-28T16:19:46.634Z,1.10
2022-07-28T16:24:43.160Z,1.70
2022-07-28T16:29:44.895Z,2.30
2022-07-28T16:34:48.171Z,2.88
2022-07-28T16:39:49.891Z,3.03
2022-07-28T16:44:51.526Z,1.00
2022-07-28T16:49:53.499Z,1.30
2022-07-28T16:54:56.079Z,0.90
2022-07-28T16:59:57.741Z,1.17
2022-07-28T17:04:59.593Z,1.33
2022-07-28T17:10:01.552Z,2.67
2022-07-28T17:15:04.337Z,3.10
2022-07-28T17:20:07.128Z,2.10
2022-07-28T17:25:22.680Z,1.40
2022-07-28T17:30:33.183Z,1.17
2022-07-28T17:35:35.964Z,4.25
2022-07-28T17:40:40.004Z,1.15
2022-07-28T17:45:41.800Z,2.40
2022-07-28T17:50:44.337Z,2.42
2022-07-28T17:56:00.424Z,1.08
2022-07-28T18:01:09.290Z,1.10
2022-07-28T18:06:12.455Z,2.53
2022-07-28T18:11:14.078Z,2.92
2022-07-28T18:16:15.857Z,2.10
2022-07-28T18:21:17.504Z,2.25
2022-07-28T18:26:19.219Z,1.10
2022-07-28T18:31:21.782Z,1.33
2022-07-28T18:36:23.839Z,1.50
2022-07-28T18:41:25.464Z,1.30
2022-07-28T18:46:27.217Z,1.00
2022-07-28T18:51:29.181Z,2.38
2022-07-28T18:56:30.990Z,1.10
2022-07-28T19:01:33.089Z,1.60
2022-07-28T19:06:36.180Z,1.48
2022-07-28T19:11:41.202Z,1.77
2022-07-28T19:16:45.551Z,1.27
2022-07-28T19:21:47.311Z,1.10
2022-07-28T19:26:51.180Z,6.38
2022-07-28T19:31:52.989Z,1.45
2022-07-28T19:36:54.877Z,1.63
2022-07-28T19:41:56.457Z,1.20
2022-07-28T19:46:59.444Z,1.42
2022-07-28T19:52:01.277Z,1.58
2022-07-28T19:57:03.176Z,1.40
2022-07-28T20:02:14.340Z,2.70
2022-07-28T20:07:16.132Z,1.27
2022-07-28T20:12:18.032Z,2.17
2022-07-28T20:17:37.508Z,1.50
2022-07-28T20:22:41.623Z,1.20
2022-07-28T20:27:44.341Z,1.45
2022-07-28T20:32:46.729Z,1.27
2022-07-28T20:37:49.419Z,2.50
2022-07-28T20:42:53.516Z,1.67
2022-07-28T20:47:55.169Z,2.53
2022-07-28T20:52:56.767Z,1.55
2022-07-28T20:57:58.367Z,1.88
2022-07-28T21:03:00.218Z,2.20
2022-07-28T21:08:04.793Z,1.48
2022-07-28T21:13:08.406Z,1.80
2022-07-28T21:18:10.778Z,1.50
2022-07-28T21:23:12.497Z,1.67
2022-07-28T21:28:32.921Z,4.32
2022-07-28T21:33:34.615Z,2.35
2022-07-28T21:38:36.305Z,1.40
2022-07-28T21:43:38.187Z,2.75
2022-07-28T21:48:39.956Z,1.65
2022-07-28T21:53:44.920Z,1.98
2022-07-28T21:58:47.593Z,1.65
2022-07-28T22:03:50.261Z,1.42
2022-07-28T22:08:54.074Z,1.85
2022-07-28T22:13:55.859Z,1.70
2022-07-28T22:18:57.551Z,1.63
2022-07-28T22:23:59.362Z,1.20
2022-07-28T22:29:01.029Z,1.52
2022-07-28T22:34:02.784Z,1.50
2022-07-28T22:39:04.871Z,4.47
2022-07-28T22:44:09.504Z,2.35
2022-07-28T22:49:11.177Z,1.73
2022-07-28T22:54:13.404Z,2.90
2022-07-28T22:59:17.740Z,1.15
2022-07-28T23:04:19.881Z,1.40
2022-07-28T23:09:24.767Z,1.63
2022-07-28T23:14:26.415Z,1.85
2022-07-28T23:19:28.211Z,1.88
2022-07-28T23:24:30.362Z,4.30
2022-07-28T23:29:32.017Z,1.58
2022-07-28T23:34:33.672Z,2.00
2022-07-28T23:39:35.280Z,1.83
2022-07-28T23:44:36.877Z,1.55
2022-07-28T23:49:38.597Z,3.95
2022-07-28T23:54:40.193Z,1.55
2022-07-28T23:59:41.927Z,3.35
